createdAt,value
2018-12-19T00:00:30.294Z,102370.08
2018-12-19T00:01:31.438Z,102372.74
2018-12-19T00:02:32.586Z,102372.25
2018-12-19T00:03:33.723Z,102373.58
2018-12-19T00:04:34.929Z,102370.08
2018-12-19T00:05:36.065Z,102370.92
2018-12-19T00:06:37.221Z,102370.92
2018-12-19T00:07:38.373Z,102380.25
2018-12-19T00:08:39.496Z,102368.25
2018-12-19T00:09:40.637Z,102376.25
2018-12-19T00:10:42.353Z,102373.58
2018-12-19T00:11:43.485Z,102369.58
2018-12-19T00:12:44.646Z,102374.92
2018-12-19T00:13:45.789Z,102375.79
2018-12-19T00:14:46.961Z,102379.41
2018-12-19T00:15:48.143Z,102370.16
2018-12-19T00:16:49.270Z,102373.70
2018-12-19T00:17:50.409Z,102373.20
2018-12-19T00:18:51.618Z,102382.91
2018-12-19T00:19:52.834Z,102376.25
2018-12-19T00:20:53.985Z,102377.20
2018-12-19T00:21:55.105Z,102371.87
2018-12-19T00:22:56.253Z,102374.16
2018-12-19T00:23:57.421Z,102376.82
2018-12-19T00:24:58.689Z,102374.16
2018-12-19T00:25:59.833Z,102373.70
2018-12-19T00:27:00.985Z,102375.02
2018-12-19T00:28:02.125Z,102379.02
2018-12-19T00:29:03.300Z,102376.82
2018-12-19T00:30:05.397Z,102380.36
2018-12-19T00:31:06.549Z,102379.10
2018-12-19T00:32:07.677Z,102383.10
2018-12-19T00:33:08.801Z,102382.16
2018-12-19T00:34:09.953Z,102379.02
2018-12-19T00:35:11.089Z,102379.98
2018-12-19T00:36:12.215Z,102383.48
2018-12-19T00:37:13.350Z,102378.53
2018-12-19T00:38:14.493Z,102376.82
2018-12-19T00:39:16.121Z,102380.36
2018-12-19T00:40:24.510Z,102383.48
2018-12-19T00:41:25.768Z,102386.08
2018-12-19T00:42:26.909Z,102374.08
2018-12-19T00:43:28.053Z,102378.45
2018-12-19T00:44:29.192Z,102379.79
2018-12-19T00:45:30.397Z,102388.17
2018-12-19T00:46:31.553Z,102385.02
2018-12-19T00:47:32.706Z,102388.06
2018-12-19T00:48:33.850Z,102381.78
2018-12-19T00:49:34.989Z,102383.60
2018-12-19T00:50:36.133Z,102383.11
2018-12-19T00:51:37.281Z,102386.66
2018-12-19T00:52:38.430Z,102387.98
2018-12-19T00:53:39.554Z,102381.78
2018-12-19T00:54:40.691Z,102377.32
2018-12-19T00:55:41.854Z,102383.98
2018-12-19T00:56:43.004Z,102383.98
2018-12-19T00:57:44.130Z,102382.54
2018-12-19T00:58:45.260Z,102386.16
2018-12-19T00:59:46.434Z,102382.54
2018-12-19T01:00:47.577Z,102387.41
2018-12-19T01:01:48.721Z,102384.83
2018-12-19T01:02:49.892Z,102391.88
2018-12-19T01:03:52.074Z,102384.37
2018-12-19T01:04:53.425Z,102393.20
2018-12-19T01:05:54.569Z,102394.53
2018-12-19T01:06:55.721Z,102392.83
2018-12-19T01:07:56.850Z,102393.20
2018-12-19T01:08:57.989Z,102391.88
2018-12-19T01:09:59.161Z,102395.03
2018-12-19T01:11:00.318Z,102395.87
2018-12-19T01:12:01.540Z,102396.36
2018-12-19T01:13:02.733Z,102394.53
2018-12-19T01:14:03.886Z,102400.82
2018-12-19T01:15:05.488Z,102402.54
2018-12-19T01:16:06.646Z,102404.36
2018-12-19T01:17:07.817Z,102394.16
2018-12-19T01:18:08.986Z,102393.31
2018-12-19T01:19:10.117Z,102396.83
2018-12-19T01:20:11.366Z,102388.44
2018-12-19T01:21:12.611Z,102389.78
2018-12-19T01:22:13.777Z,102396.83
2018-12-19T01:23:14.909Z,102392.94
2018-12-19T01:24:16.680Z,102390.27
2018-12-19T01:25:17.833Z,102395.98
2018-12-19T01:26:18.967Z,102393.77
2018-12-19T01:27:20.111Z,102392.44
2018-12-19T01:28:21.245Z,102391.11
2018-12-19T01:29:22.481Z,102381.39
2018-12-19T01:30:23.625Z,102384.83
2018-12-19T01:31:25.046Z,102388.44
2018-12-19T01:32:26.199Z,102386.27
2018-12-19T01:33:27.337Z,102391.11
2018-12-19T01:34:28.524Z,102385.31
2018-12-19T01:35:29.662Z,102389.78
2018-12-19T01:36:30.797Z,102387.98
2018-12-19T01:37:31.933Z,102380.44
2018-12-19T01:38:33.061Z,102389.78
2018-12-19T01:39:34.199Z,102385.31
2018-12-19T01:40:35.354Z,102390.66
2018-12-19T01:41:36.509Z,102386.66
2018-12-19T01:42:37.635Z,102389.70
2018-12-19T01:43:38.785Z,102399.87
2018-12-19T01:44:39.945Z,102393.77
2018-12-19T01:45:41.086Z,102395.48
2018-12-19T01:46:42.227Z,102393.31
2018-12-19T01:47:43.742Z,102392.83
2018-12-19T01:48:44.907Z,102397.20
2018-12-19T01:49:46.061Z,102405.70
2018-12-19T01:50:47.239Z,102401.70
2018-12-19T01:51:48.390Z,102406.54
2018-12-19T01:52:49.535Z,102399.41
2018-12-19T01:53:50.700Z,102395.03
2018-12-19T01:54:51.853Z,102398.92
2018-12-19T01:55:53.145Z,102397.20
2018-12-19T01:56:54.285Z,102398.54
2018-12-19T01:57:55.417Z,102400.25
2018-12-19T01:58:56.557Z,102397.59
2018-12-19T01:59:57.677Z,102396.75
2018-12-19T02:00:58.798Z,102392.25
2018-12-19T02:01:59.917Z,102399.87
2018-12-19T02:03:01.037Z,102402.54
2018-12-19T02:04:02.178Z,102406.54
2018-12-19T02:05:03.572Z,102403.41
2018-12-19T02:06:04.705Z,102404.82
2018-12-19T02:07:05.845Z,102406.54
2018-12-19T02:08:07.017Z,102407.41
2018-12-19T02:09:08.166Z,102403.88
2018-12-19T02:10:09.317Z,102398.54
2018-12-19T02:11:10.460Z,102402.08
2018-12-19T02:12:11.601Z,102409.59
2018-12-19T02:13:12.740Z,102410.08
2018-12-19T02:14:14.945Z,102414.46
2018-12-19T02:15:16.082Z,102410.92
2018-12-19T02:16:17.224Z,102415.30
2018-12-19T02:17:18.349Z,102413.51
2018-12-19T02:18:19.475Z,102415.69
2018-12-19T02:19:20.637Z,102413.97
2018-12-19T02:20:28.707Z,102415.69
2018-12-19T02:21:29.853Z,102413.02
2018-12-19T02:22:31.025Z,102414.35
2018-12-19T02:23:32.158Z,102411.30
2018-12-19T02:24:33.282Z,102417.02
2018-12-19T02:25:34.415Z,102409.02
2018-12-19T02:26:35.599Z,102412.56
2018-12-19T02:27:36.718Z,102401.89
2018-12-19T02:28:44.701Z,102412.56
2018-12-19T02:29:45.833Z,102409.40
2018-12-19T02:30:46.995Z,102401.02
2018-12-19T02:31:48.158Z,102406.34
2018-12-19T02:32:49.290Z,102401.89
2018-12-19T02:33:50.680Z,102412.06
2018-12-19T02:34:51.830Z,102408.06
2018-12-19T02:35:52.969Z,102407.22
2018-12-19T02:36:54.109Z,102415.61
2018-12-19T02:37:55.221Z,102418.73
2018-12-19T02:38:56.338Z,102421.78
2018-12-19T02:39:57.494Z,102418.73
2018-12-19T02:40:58.783Z,102414.27
2018-12-19T02:42:07.015Z,102423.61
2018-12-19T02:43:08.179Z,102418.73
2018-12-19T02:44:09.318Z,102422.27
2018-12-19T02:45:10.486Z,102426.73
2018-12-19T02:46:11.729Z,102420.94
2018-12-19T02:47:12.856Z,102430.27
2018-12-19T02:48:14.033Z,102428.45
2018-12-19T02:49:15.187Z,102436.94
2018-12-19T02:50:16.334Z,102437.78
2018-12-19T02:51:17.478Z,102434.73
2018-12-19T02:52:18.630Z,102432.94
2018-12-19T02:53:19.755Z,102436.45
2018-12-19T02:54:20.931Z,102437.89
2018-12-19T02:55:22.074Z,102434.27
2018-12-19T02:56:23.398Z,102430.73
2018-12-19T02:57:24.529Z,102435.12
2018-12-19T02:58:25.671Z,102433.40
2018-12-19T02:59:26.791Z,102429.89
2018-12-19T03:00:27.987Z,102435.61
2018-12-19T03:01:29.114Z,102430.73
2018-12-19T03:02:30.246Z,102431.61
2018-12-19T03:03:31.394Z,102435.61
2018-12-19T03:04:32.535Z,102432.45
2018-12-19T03:05:33.678Z,102432.83
2018-12-19T03:06:34.835Z,102433.33
2018-12-19T03:07:35.974Z,102434.16
2018-12-19T03:08:37.106Z,102432.45
2018-12-19T03:09:42.964Z,102435.50
2018-12-19T03:10:41.424Z,102438.16
2018-12-19T03:11:49.565Z,102431.88
2018-12-19T03:12:50.721Z,102443.04
2018-12-19T03:13:52.310Z,102440.83
2018-12-19T03:14:53.465Z,102438.16
2018-12-19T03:15:54.759Z,102441.33
2018-12-19T03:16:55.898Z,102442.66
2018-12-19T03:17:57.014Z,102439.50
2018-12-19T03:18:58.171Z,102442.16
2018-12-19T03:19:59.318Z,102439.50
2018-12-19T03:21:00.446Z,102445.33
2018-12-19T03:22:01.590Z,102441.70
2018-12-19T03:23:02.709Z,102451.12
2018-12-19T03:24:03.861Z,102445.33
2018-12-19T03:25:05.138Z,102452.83
2018-12-19T03:26:06.309Z,102452.83
2018-12-19T03:27:07.436Z,102455.50
2018-12-19T03:28:08.583Z,102455.50
2018-12-19T03:29:09.843Z,102453.78
2018-12-19T03:30:11.014Z,102455.50
2018-12-19T03:31:12.173Z,102451.50
2018-12-19T03:32:13.439Z,102454.16
2018-12-19T03:33:14.561Z,102449.70
2018-12-19T03:34:15.706Z,102455.04
2018-12-19T03:35:16.845Z,102450.55
2018-12-19T03:36:17.989Z,102450.16
2018-12-19T03:37:19.157Z,102447.05
2018-12-19T03:38:23.109Z,102452.76
2018-12-19T03:39:24.289Z,102443.50
2018-12-19T03:40:25.787Z,102446.66
2018-12-19T03:41:34.357Z,102447.50
2018-12-19T03:42:35.505Z,102452.83
2018-12-19T03:43:36.643Z,102460.83
2018-12-19T03:44:37.818Z,102455.50
2018-12-19T03:45:38.963Z,102459.98
2018-12-19T03:46:40.223Z,102464.37
2018-12-19T03:47:41.359Z,102461.33
2018-12-19T03:48:48.493Z,102462.66
2018-12-19T03:49:49.978Z,102465.22
2018-12-19T03:50:51.106Z,102456.83
2018-12-19T03:51:52.393Z,102466.66
2018-12-19T03:52:53.530Z,102460.83
2018-12-19T03:53:54.669Z,102459.98
2018-12-19T03:54:55.817Z,102454.16
2018-12-19T03:55:57.084Z,102450.16
2018-12-19T03:56:58.361Z,102454.16
2018-12-19T03:57:59.639Z,102451.50
2018-12-19T03:59:00.794Z,102449.22
2018-12-19T04:00:01.965Z,102449.22
2018-12-19T04:01:03.109Z,102449.70
2018-12-19T04:02:04.282Z,102447.42
2018-12-19T04:03:05.418Z,102449.22
2018-12-19T04:04:06.565Z,102450.55
2018-12-19T04:05:07.682Z,102448.38
2018-12-19T04:06:08.831Z,102453.59
2018-12-19T04:07:09.972Z,102447.42
2018-12-19T04:08:11.125Z,102446.47
2018-12-19T04:09:12.266Z,102448.75
2018-12-19T04:10:13.403Z,102449.22
2018-12-19T04:11:14.551Z,102448.27
2018-12-19T04:12:15.697Z,102442.93
2018-12-19T04:13:16.813Z,102438.09
2018-12-19T04:14:17.938Z,102441.21
2018-12-19T04:15:19.093Z,102439.42
2018-12-19T04:16:20.258Z,102442.93
2018-12-19T04:17:21.521Z,102442.93
2018-12-19T04:18:22.692Z,102442.93
2018-12-19T04:19:23.823Z,102443.34
2018-12-19T04:20:24.961Z,102437.52
2018-12-19T04:21:26.129Z,102431.80
2018-12-19T04:22:27.246Z,102436.27
2018-12-19T04:23:28.397Z,102439.34
2018-12-19T04:24:29.547Z,102431.80
2018-12-19T04:25:30.698Z,102431.34
2018-12-19T04:26:31.860Z,102428.68
2018-12-19T04:27:32.970Z,102428.27
2018-12-19T04:28:34.108Z,102424.27
2018-12-19T04:29:35.397Z,102429.06
2018-12-19T04:30:38.478Z,102429.14
2018-12-19T04:31:39.623Z,102422.47
2018-12-19T04:32:40.909Z,102421.14
2018-12-19T04:33:42.058Z,102422.02
2018-12-19T04:34:43.238Z,102420.67
2018-12-19T04:35:44.618Z,102424.67
2018-12-19T04:36:45.757Z,102420.27
2018-12-19T04:37:46.887Z,102420.27
2018-12-19T04:38:48.184Z,102428.68
2018-12-19T04:39:49.330Z,102420.75
2018-12-19T04:40:50.470Z,102422.85
2018-12-19T04:41:51.619Z,102427.42
2018-12-19T04:42:52.768Z,102422.09
2018-12-19T04:43:53.935Z,102424.27
2018-12-19T04:44:55.065Z,102429.59
2018-12-19T04:45:56.209Z,102428.27
2018-12-19T04:46:57.357Z,102426.93
2018-12-19T04:47:58.495Z,102427.88
2018-12-19T04:48:59.950Z,102430.47
2018-12-19T04:50:01.114Z,102430.09
2018-12-19T04:51:02.358Z,102427.80
2018-12-19T04:52:03.522Z,102426.93
2018-12-19T04:53:04.667Z,102437.59
2018-12-19T04:54:05.790Z,102433.22
2018-12-19T04:55:06.961Z,102431.42
2018-12-19T04:56:08.096Z,102437.59
2018-12-19T04:57:09.243Z,102435.50
2018-12-19T04:58:10.369Z,102440.27
2018-12-19T04:59:11.659Z,102441.59
2018-12-19T05:00:12.824Z,102441.59
2018-12-19T05:01:13.991Z,102439.88
2018-12-19T05:02:15.124Z,102446.93
2018-12-19T05:03:16.286Z,102440.37
2018-12-19T05:04:17.426Z,102442.93
2018-12-19T05:05:18.573Z,102435.88
2018-12-19T05:06:19.705Z,102439.42
2018-12-19T05:07:21.485Z,102440.76
2018-12-19T05:08:22.654Z,102432.27
2018-12-19T05:09:23.801Z,102433.14
2018-12-19T05:10:24.971Z,102434.55
2018-12-19T05:11:26.277Z,102437.59
2018-12-19T05:12:27.422Z,102438.09
2018-12-19T05:13:28.565Z,102432.75
2018-12-19T05:14:29.837Z,102442.93
2018-12-19T05:15:30.971Z,102439.42
2018-12-19T05:16:32.126Z,102433.22
2018-12-19T05:17:33.258Z,102434.92
2018-12-19T05:18:35.667Z,102439.88
2018-12-19T05:19:37.055Z,102441.21
2018-12-19T05:20:38.193Z,102444.27
2018-12-19T05:21:39.337Z,102449.14
2018-12-19T05:22:40.485Z,102439.42
2018-12-19T05:23:41.629Z,102441.59
2018-12-19T05:24:42.765Z,102443.42
2018-12-19T05:25:43.894Z,102443.04
2018-12-19T05:26:45.056Z,102445.14
2018-12-19T05:27:46.177Z,102444.75
2018-12-19T05:28:47.310Z,102453.59
2018-12-19T05:29:48.457Z,102450.55
2018-12-19T05:30:49.640Z,102452.83
2018-12-19T05:31:50.829Z,102458.93
2018-12-19T05:32:51.939Z,102453.22
2018-12-19T05:33:53.082Z,102449.59
2018-12-19T05:34:54.225Z,102457.22
2018-12-19T05:35:55.357Z,102450.16
2018-12-19T05:36:56.497Z,102455.88
2018-12-19T05:37:57.614Z,102454.55
2018-12-19T05:38:58.752Z,102455.50
2018-12-19T05:39:59.913Z,102456.83
2018-12-19T05:41:01.076Z,102461.70
2018-12-19T05:42:02.217Z,102456.38
2018-12-19T05:43:10.305Z,102458.16
2018-12-19T05:44:11.429Z,102461.33
2018-12-19T05:45:12.581Z,102462.17
2018-12-19T05:46:13.709Z,102463.50
2018-12-19T05:47:14.989Z,102470.16
2018-12-19T05:48:16.126Z,102464.83
2018-12-19T05:49:17.294Z,102468.68
2018-12-19T05:50:19.107Z,102468.58
2018-12-19T05:51:20.257Z,102467.16
2018-12-19T05:52:23.446Z,102462.48
2018-12-19T05:53:24.609Z,102470.68
2018-12-19T05:54:25.798Z,102466.11
2018-12-19T05:55:27.065Z,102468.52
2018-12-19T05:56:28.246Z,102472.79
2018-12-19T05:57:29.623Z,102473.97
2018-12-19T05:58:30.767Z,102472.52
2018-12-19T05:59:31.908Z,102472.83
2018-12-19T06:00:33.121Z,102472.72
2018-12-19T06:01:34.237Z,102472.53
2018-12-19T06:02:35.389Z,102476.07
2018-12-19T06:03:36.533Z,102475.13
2018-12-19T06:04:37.673Z,102476.84
2018-12-19T06:05:38.809Z,102478.06
2018-12-19T06:06:39.929Z,102474.05
2018-12-19T06:07:41.071Z,102483.78
2018-12-19T06:08:42.214Z,102483.78
2018-12-19T06:09:43.345Z,102477.98
2018-12-19T06:10:44.481Z,102482.83
2018-12-19T06:11:52.684Z,102484.16
2018-12-19T06:12:53.819Z,102489.42
2018-12-19T06:13:54.958Z,102487.21
2018-12-19T06:14:56.094Z,102489.88
2018-12-19T06:15:57.229Z,102495.22
2018-12-19T06:16:58.345Z,102501.05
2018-12-19T06:17:59.490Z,102498.84
2018-12-19T06:19:00.627Z,102505.05
2018-12-19T06:20:01.783Z,102507.72
2018-12-19T06:21:02.977Z,102502.00
2018-12-19T06:22:04.147Z,102502.00
2018-12-19T06:23:05.273Z,102502.95
2018-12-19T06:24:06.407Z,102506.46
2018-12-19T06:25:07.574Z,102502.08
2018-12-19T06:26:08.709Z,102504.36
2018-12-19T06:27:09.839Z,102507.41
2018-12-19T06:28:10.987Z,102499.03
2018-12-19T06:29:12.141Z,102502.19
2018-12-19T06:30:13.337Z,102495.97
2018-12-19T06:31:14.458Z,102498.64
2018-12-19T06:32:15.602Z,102495.59
2018-12-19T06:33:16.721Z,102498.75
2018-12-19T06:34:17.850Z,102497.42
2018-12-19T06:35:18.990Z,102499.59
2018-12-19T06:36:20.210Z,102502.64
2018-12-19T06:37:21.420Z,102506.27
2018-12-19T06:38:22.766Z,102503.22
2018-12-19T06:39:23.893Z,102504.16
2018-12-19T06:40:25.022Z,102508.17
2018-12-19T06:41:26.135Z,102499.33
2018-12-19T06:42:27.314Z,102504.16
2018-12-19T06:43:28.454Z,102501.61
2018-12-19T06:44:29.601Z,102506.45
2018-12-19T06:45:30.759Z,102509.13
2018-12-19T06:46:31.890Z,102503.89
2018-12-19T06:47:33.041Z,102507.02
2018-12-19T06:48:34.177Z,102500.35
2018-12-19T06:49:35.317Z,102506.18
2018-12-19T06:50:36.453Z,102501.30
2018-12-19T06:51:37.589Z,102503.97
2018-12-19T06:52:38.873Z,102507.97
2018-12-19T06:53:40.006Z,102501.88
2018-12-19T06:54:48.223Z,102502.75
2018-12-19T06:55:49.382Z,102502.25
2018-12-19T06:56:50.533Z,102499.20
2018-12-19T06:57:51.673Z,102510.26
2018-12-19T06:58:52.809Z,102501.48
2018-12-19T06:59:53.924Z,102501.11
2018-12-19T07:00:55.045Z,102502.44
2018-12-19T07:01:56.205Z,102505.11
2018-12-19T07:02:57.341Z,102502.94
2018-12-19T07:03:58.471Z,102507.39
2018-12-19T07:04:59.605Z,102503.01
2018-12-19T07:06:00.727Z,102505.67
2018-12-19T07:07:01.869Z,102510.14
2018-12-19T07:08:03.021Z,102506.62
2018-12-19T07:09:05.454Z,102510.63
2018-12-19T07:10:06.910Z,102507.58
2018-12-19T07:11:08.050Z,102508.04
2018-12-19T07:12:09.203Z,102508.91
2018-12-19T07:13:10.329Z,102510.70
2018-12-19T07:14:11.465Z,102507.27
2018-12-19T07:15:12.629Z,102505.94
2018-12-19T07:16:13.780Z,102504.61
2018-12-19T07:17:14.899Z,102503.77
2018-12-19T07:18:16.030Z,102508.61
2018-12-19T07:19:17.203Z,102512.61
2018-12-19T07:20:18.359Z,102510.05
2018-12-19T07:21:19.489Z,102514.05
2018-12-19T07:22:20.631Z,102516.72
2018-12-19T07:23:21.757Z,102517.56
2018-12-19T07:24:22.910Z,102511.95
2018-12-19T07:25:24.090Z,102517.67
2018-12-19T07:26:25.292Z,102512.33
2018-12-19T07:27:26.443Z,102518.63
2018-12-19T07:28:27.577Z,102517.74
2018-12-19T07:29:28.699Z,102513.28
2018-12-19T07:30:29.830Z,102515.08
2018-12-19T07:31:30.965Z,102516.80
2018-12-19T07:32:32.101Z,102519.00
2018-12-19T07:33:33.243Z,102523.47
2018-12-19T07:34:34.361Z,102519.46
2018-12-19T07:35:35.497Z,102515.95
2018-12-19T07:36:37.033Z,102520.34
2018-12-19T07:37:38.175Z,102516.80
2018-12-19T07:38:39.334Z,102527.01
2018-12-19T07:39:40.485Z,102522.63
2018-12-19T07:40:45.689Z,102520.34
2018-12-19T07:41:44.769Z,102519.95
2018-12-19T07:42:45.898Z,102522.63
2018-12-19T07:43:47.081Z,102519.00
2018-12-19T07:44:48.244Z,102522.52
2018-12-19T07:45:49.381Z,102523.39
2018-12-19T07:46:57.351Z,102527.20
2018-12-19T07:47:58.465Z,102529.05
2018-12-19T07:48:59.617Z,102523.03
2018-12-19T07:50:00.745Z,102525.25
2018-12-19T07:51:01.891Z,102521.25
2018-12-19T07:52:03.073Z,102526.52
2018-12-19T07:53:04.349Z,102517.56
2018-12-19T07:54:05.493Z,102519.31
2018-12-19T07:55:06.649Z,102518.47
2018-12-19T07:56:08.023Z,102517.97
2018-12-19T07:57:09.153Z,102521.13
2018-12-19T07:58:10.355Z,102520.74
2018-12-19T07:59:11.473Z,102523.52
2018-12-19T08:00:12.618Z,102516.27
2018-12-19T08:01:13.827Z,102523.12
2018-12-19T08:02:14.970Z,102528.77
2018-12-19T08:03:16.073Z,102524.64
2018-12-19T08:04:17.368Z,102526.74
2018-12-19T08:05:18.505Z,102523.23
2018-12-19T08:06:19.629Z,102525.78
2018-12-19T08:07:20.742Z,102527.04
2018-12-19T08:08:21.857Z,102528.84
2018-12-19T08:09:23.002Z,102526.74
2018-12-19T08:10:24.121Z,102526.74
2018-12-19T08:11:25.270Z,102529.03
2018-12-19T08:12:27.039Z,102524.64
2018-12-19T08:13:28.269Z,102525.98
2018-12-19T08:14:29.413Z,102526.56
2018-12-19T08:15:30.545Z,102527.52
2018-12-19T08:16:31.689Z,102529.80
2018-12-19T08:17:32.825Z,102532.09
2018-12-19T08:18:34.197Z,102534.39
2018-12-19T08:19:35.321Z,102533.13
2018-12-19T08:20:36.458Z,102531.04
2018-12-19T08:21:37.629Z,102533.82
2018-12-19T08:22:38.753Z,102537.91
2018-12-19T08:23:39.900Z,102532.19
2018-12-19T08:24:41.165Z,102537.64
2018-12-19T08:25:42.403Z,102541.27
2018-12-19T08:26:43.693Z,102539.17
2018-12-19T08:27:44.893Z,102534.41
2018-12-19T08:28:46.246Z,102546.04
2018-12-19T08:29:47.419Z,102537.27
2018-12-19T08:30:48.593Z,102546.20
2018-12-19T08:31:49.754Z,102536.09
2018-12-19T08:32:50.897Z,102548.60
2018-12-19T08:33:52.046Z,102548.22
2018-12-19T08:34:53.185Z,102546.58
2018-12-19T08:35:54.313Z,102547.92
2018-12-19T08:36:55.484Z,102552.50
2018-12-19T08:37:56.633Z,102554.41
2018-12-19T08:38:57.762Z,102549.64
2018-12-19T08:39:58.881Z,102551.92
2018-12-19T08:41:00.022Z,102555.93
2018-12-19T08:42:01.182Z,102553.83
2018-12-19T08:43:09.277Z,102550.78
2018-12-19T08:44:10.417Z,102556.23
2018-12-19T08:45:11.541Z,102558.90
2018-12-19T08:46:14.643Z,102560.31
2018-12-19T08:47:15.874Z,102557.27
2018-12-19T08:48:17.037Z,102552.49
2018-12-19T08:49:18.181Z,102553.91
2018-12-19T08:50:19.310Z,102553.11
2018-12-19T08:51:20.458Z,102552.27
2018-12-19T08:52:21.578Z,102552.27
2018-12-19T08:53:22.773Z,102554.17
2018-12-19T08:54:23.953Z,102552.84
2018-12-19T08:55:25.066Z,102548.06
2018-12-19T08:56:26.327Z,102555.70
2018-12-19T08:57:27.529Z,102553.48
2018-12-19T08:58:28.778Z,102554.44
2018-12-19T08:59:29.895Z,102553.10
2018-12-19T09:00:31.049Z,102553.59
2018-12-19T09:01:32.195Z,102551.39
2018-12-19T09:02:33.329Z,102551.95
2018-12-19T09:03:41.479Z,102557.67
2018-12-19T09:04:42.617Z,102557.78
2018-12-19T09:05:43.754Z,102557.78
2018-12-19T09:06:44.890Z,102559.13
2018-12-19T09:07:46.029Z,102556.14
2018-12-19T09:08:47.169Z,102553.97
2018-12-19T09:09:48.318Z,102551.76
2018-12-19T09:10:49.425Z,102550.92
2018-12-19T09:11:50.558Z,102550.53
2018-12-19T09:12:51.665Z,102546.99
2018-12-19T09:13:52.789Z,102545.73
2018-12-19T09:14:53.925Z,102545.73
2018-12-19T09:15:55.045Z,102540.50
2018-12-19T09:16:56.162Z,102540.97
2018-12-19T09:18:04.360Z,102538.30
2018-12-19T09:19:05.473Z,102539.25
2018-12-19T09:20:06.975Z,102540.58
2018-12-19T09:21:08.089Z,102541.08
2018-12-19T09:22:16.575Z,102538.86
2018-12-19T09:23:24.607Z,102538.98
2018-12-19T09:24:25.785Z,102539.44
2018-12-19T09:25:27.036Z,102540.88
2018-12-19T09:26:28.893Z,102532.48
2018-12-19T09:27:30.009Z,102541.34
2018-12-19T09:28:31.130Z,102544.57
2018-12-19T09:29:32.405Z,102543.23
2018-12-19T09:30:33.549Z,102544.12
2018-12-19T09:31:34.665Z,102538.86
2018-12-19T09:32:35.786Z,102539.34
2018-12-19T09:33:36.906Z,102537.52
2018-12-19T09:34:38.018Z,102539.34
2018-12-19T09:35:39.123Z,102534.47
2018-12-19T09:36:40.251Z,102532.75
2018-12-19T09:37:41.365Z,102533.70
2018-12-19T09:38:42.501Z,102536.30
2018-12-19T09:39:43.657Z,102540.19
2018-12-19T09:40:44.823Z,102539.23
2018-12-19T09:41:45.973Z,102541.83
2018-12-19T09:42:47.101Z,102541.27
2018-12-19T09:43:48.229Z,102531.54
2018-12-19T09:44:49.366Z,102531.43
2018-12-19T09:45:50.461Z,102534.09
2018-12-19T09:46:51.593Z,102534.09
2018-12-19T09:47:52.821Z,102533.14
2018-12-19T09:48:53.941Z,102535.81
2018-12-19T09:49:55.062Z,102535.81
2018-12-19T09:50:56.255Z,102533.14
2018-12-19T09:51:57.396Z,102534.48
2018-12-19T09:52:58.513Z,102538.48
2018-12-19T09:53:59.649Z,102538.41
2018-12-19T09:55:00.813Z,102539.73
2018-12-19T09:56:01.957Z,102541.91
2018-12-19T09:57:03.148Z,102539.25
2018-12-19T09:58:04.415Z,102539.25
2018-12-19T09:59:05.561Z,102546.69
2018-12-19T10:00:10.305Z,102535.63
2018-12-19T10:01:11.449Z,102542.79
2018-12-19T10:02:12.926Z,102542.22
2018-12-19T10:03:14.075Z,102539.17
2018-12-19T10:04:15.242Z,102544.40
2018-12-19T10:05:16.413Z,102537.34
2018-12-19T10:06:17.554Z,102539.63
2018-12-19T10:07:18.699Z,102535.55
2018-12-19T10:08:19.826Z,102532.95
2018-12-19T10:09:21.069Z,102536.01
2018-12-19T10:10:22.229Z,102528.00
2018-12-19T10:11:23.502Z,102524.95
2018-12-19T10:12:24.644Z,102519.61
2018-12-19T10:13:25.761Z,102521.33
2018-12-19T10:14:26.926Z,102513.44
2018-12-19T10:15:28.039Z,102510.39
2018-12-19T10:16:29.181Z,102508.56
2018-12-19T10:17:30.320Z,102512.56
2018-12-19T10:18:31.569Z,102510.84
2018-12-19T10:19:32.755Z,102510.84
2018-12-19T10:20:33.893Z,102516.19
2018-12-19T10:21:35.173Z,102518.85
2018-12-19T10:22:36.317Z,102522.86
2018-12-19T10:23:37.521Z,102526.86
2018-12-19T10:24:44.857Z,102529.14
2018-12-19T10:25:48.045Z,102530.86
2018-12-19T10:26:49.169Z,102534.41
2018-12-19T10:27:57.166Z,102530.41
2018-12-19T10:28:58.413Z,102528.19
2018-12-19T10:29:59.631Z,102533.91
2018-12-19T10:31:00.763Z,102531.73
2018-12-19T10:32:01.902Z,102536.69
2018-12-19T10:33:03.045Z,102536.20
2018-12-19T10:34:04.173Z,102538.48
2018-12-19T10:35:06.847Z,102535.81
2018-12-19T10:36:07.970Z,102534.48
2018-12-19T10:37:09.121Z,102538.86
2018-12-19T10:38:10.257Z,102533.64
2018-12-19T10:39:12.721Z,102538.48
2018-12-19T10:40:13.827Z,102535.44
2018-12-19T10:41:14.944Z,102542.02
2018-12-19T10:42:16.113Z,102534.97
2018-12-19T10:43:17.237Z,102543.81
2018-12-19T10:44:18.485Z,102535.44
2018-12-19T10:45:19.624Z,102537.26
2018-12-19T10:46:20.750Z,102538.59
2018-12-19T10:47:21.874Z,102532.77
2018-12-19T10:48:22.997Z,102536.77
2018-12-19T10:49:24.133Z,102536.38
2018-12-19T10:50:25.257Z,102536.38
2018-12-19T10:51:26.370Z,102541.27
2018-12-19T10:52:27.500Z,102533.33
2018-12-19T10:53:28.649Z,102535.55
2018-12-19T10:54:29.774Z,102535.55
2018-12-19T10:55:30.886Z,102532.00
2018-12-19T10:56:32.001Z,102537.34
2018-12-19T10:57:33.113Z,102535.62
2018-12-19T10:58:34.249Z,102538.21
2018-12-19T10:59:35.386Z,102543.55
2018-12-19T11:00:42.579Z,102540.00
2018-12-19T11:01:43.713Z,102542.67
2018-12-19T11:02:44.833Z,102543.55
2018-12-19T11:03:45.977Z,102544.39
2018-12-19T11:04:47.089Z,102540.38
2018-12-19T11:05:54.167Z,102547.05
2018-12-19T11:06:51.367Z,102540.38
2018-12-19T11:07:52.498Z,102538.67
2018-12-19T11:08:53.653Z,102543.05
2018-12-19T11:09:54.826Z,102546.67
2018-12-19T11:10:55.980Z,102533.72
2018-12-19T11:11:57.129Z,102535.05
2018-12-19T11:12:58.257Z,102540.38
2018-12-19T11:13:59.380Z,102536.00
2018-12-19T11:15:00.524Z,102534.09
2018-12-19T11:16:01.718Z,102525.71
2018-12-19T11:17:10.029Z,102530.59
2018-12-19T11:18:11.157Z,102533.25
2018-12-19T11:19:12.270Z,102530.59
2018-12-19T11:20:13.408Z,102527.92
2018-12-19T11:21:14.533Z,102535.92
2018-12-19T11:22:15.646Z,102533.64
2018-12-19T11:23:16.773Z,102527.42
2018-12-19T11:24:18.053Z,102534.02
2018-12-19T11:25:19.289Z,102525.63
2018-12-19T11:26:20.409Z,102530.97
2018-12-19T11:27:21.545Z,102535.81
2018-12-19T11:28:22.797Z,102533.53
2018-12-19T11:29:23.929Z,102533.14
2018-12-19T11:30:25.070Z,102535.81
2018-12-19T11:31:26.221Z,102530.02
2018-12-19T11:32:27.354Z,102531.43
2018-12-19T11:33:35.421Z,102533.53
2018-12-19T11:34:36.539Z,102527.35
2018-12-19T11:35:37.638Z,102528.77
2018-12-19T11:36:38.789Z,102526.97
2018-12-19T11:37:39.893Z,102531.73
2018-12-19T11:38:47.949Z,102532.69
2018-12-19T11:39:49.061Z,102530.02
2018-12-19T11:40:50.169Z,102527.35